TimePST,TemperatureF,Dew PointF,Humidity,Sea Level PressureIn,VisibilityMPH,Wind Direction,Wind SpeedMPH,Gust SpeedMPH,PrecipitationIn,Events,Conditions,WindDirDegrees,DateUTC
12:53 AM,35.1,27.0,72,29.93,10.0,South,13.8,-,N/A,,Overcast,180,2013-02-07 08:53:00
1:53 AM,34.0,27.0,75,29.92,10.0,South,8.1,-,N/A,,Mostly Cloudy,170,2013-02-07 09:53:00
2:53 AM,34.0,27.0,75,29.90,10.0,SSE,8.1,-,N/A,,Overcast,160,2013-02-07 10:53:00
3:53 AM,33.1,27.0,78,29.90,4.0,WNW,9.2,-,0.00,Snow,Light Snow,290,2013-02-07 11:53:00
4:00 AM,33.8,26.6,75,29.90,4.0,West,5.8,-,0.00,Snow,Light Snow,280,2013-02-07 12:00:00
4:26 AM,32.0,28.4,87,29.89,8.0,NW,5.8,-,0.00,Snow,Light Snow,310,2013-02-07 12:26:00
4:53 AM,32.0,28.9,88,29.90,7.0,Calm,Calm,-,0.00,Snow,Light Snow,0,2013-02-07 12:53:00
5:03 AM,32.0,30.2,93,29.89,2.5,Calm,Calm,-,0.00,Snow,Light Snow,0,2013-02-07 13:03:00
5:11 AM,32.0,30.2,93,29.90,1.2,Calm,Calm,-,0.00,Snow,Light Snow,0,2013-02-07 13:11:00
5:18 AM,32.0,30.2,93,29.89,1.2,Calm,Calm,-,0.00,Snow,Light Snow,0,2013-02-07 13:18:00
5:27 AM,32.0,30.2,93,29.89,1.0,Calm,Calm,-,0.01,Snow,Light Snow,0,2013-02-07 13:27:00
5:34 AM,30.2,30.2,100,29.89,0.8,Calm,Calm,-,0.02,Snow,Light Snow,0,2013-02-07 13:34:00
5:53 AM,30.9,30.0,96,29.91,0.8,WNW,5.8,-,0.06,Snow,Light Snow,300,2013-02-07 13:53:00
6:00 AM,30.2,30.2,100,29.89,0.5,WNW,6.9,-,0.00,Fog-Snow,Snow,300,2013-02-07 14:00:00
6:53 AM,30.0,28.0,92,29.93,0.5,West,9.2,-,0.03,Fog-Snow,Snow,280,2013-02-07 14:53:00
8:20 AM,28.4,26.6,93,29.93,1.2,NNW,4.6,-,0.01,Snow,Light Snow,340,2013-02-07 16:20:00
8:28 AM,28.4,26.6,93,29.93,2.5,North,3.5,-,0.01,Snow,Light Snow,360,2013-02-07 16:28:00
8:42 AM,28.4,26.6,93,29.93,1.0,Calm,Calm,-,0.01,Snow,Light Snow,0,2013-02-07 16:42:00
8:45 AM,28.4,26.6,93,29.93,0.5,NNW,4.6,-,0.01,Fog-Snow,Snow,330,2013-02-07 16:45:00
8:53 AM,28.9,27.0,92,29.98,0.5,NW,4.6,-,0.01,Fog-Snow,Snow,310,2013-02-07 16:53:00
9:16 AM,28.4,26.6,93,29.93,1.2,NW,4.6,-,0.01,Snow,Light Snow,320,2013-02-07 17:16:00
9:21 AM,28.4,26.6,93,29.93,3.0,Calm,Calm,-,0.01,Snow,Light Snow,0,2013-02-07 17:21:00
9:38 AM,28.4,26.6,93,29.94,1.2,Calm,Calm,-,0.01,Snow,Light Snow,0,2013-02-07 17:38:00
9:53 AM,28.0,26.1,92,29.98,4.0,Calm,Calm,-,0.01,Snow,Light Snow,0,2013-02-07 17:53:00
10:53 AM,28.9,26.1,89,29.99,9.0,Calm,Calm,-,0.00,,Mostly Cloudy,0,2013-02-07 18:53:00
11:53 AM,30.9,25.0,79,29.96,10.0,SSE,3.5,-,N/A,,Mostly Cloudy,160,2013-02-07 19:53:00
12:53 PM,33.8,26.6,75,29.94,10.0,South,3.5,-,N/A,,Mostly Cloudy,170,2013-02-07 20:53:00
1:53 PM,35.1,23.0,61,29.92,10.0,WSW,4.6,-,N/A,,Mostly Cloudy,240,2013-02-07 21:53:00
2:53 PM,35.1,23.0,61,29.91,10.0,Calm,Calm,-,N/A,,Mostly Cloudy,0,2013-02-07 22:53:00
3:53 PM,34.0,21.0,59,29.91,10.0,WSW,8.1,-,N/A,,Scattered Clouds,240,2013-02-07 23:53:00
4:53 PM,32.0,21.0,64,29.92,10.0,West,8.1,-,N/A,,Mostly Cloudy,260,2013-02-08 00:53:00
5:53 PM,26.1,19.9,78,29.94,10.0,Calm,Calm,-,N/A,,Mostly Cloudy,0,2013-02-08 01:53:00
6:53 PM,23.0,19.0,85,29.96,10.0,South,3.5,-,N/A,,Mostly Cloudy,190,2013-02-08 02:53:00
7:53 PM,23.0,19.9,88,29.97,10.0,Calm,Calm,-,N/A,,Mostly Cloudy,0,2013-02-08 03:53:00
8:53 PM,24.1,21.0,88,29.97,10.0,Calm,Calm,-,N/A,,Mostly Cloudy,0,2013-02-08 04:53:00
9:53 PM,19.9,18.0,92,30.00,10.0,SSW,4.6,-,N/A,,Mostly Cloudy,200,2013-02-08 05:53:00
10:53 PM,18.0,17.1,96,30.00,10.0,NE,3.5,-,N/A,,Clear,40,2013-02-08 06:53:00
11:53 PM,19.0,17.1,92,30.01,10.0,NW,4.6,-,N/A,,Clear,320,2013-02-08 07:53:00